Terminal Aerodrome Forecast
Issued by NWS Albuquerque, NM

Home | Current Version | Previous Version | Text Only | Print | Product List | Glossary On
Versions: 1 2 3 4 5 6 7 8 9 10 11 12 13 14 15 16 17 18 19
000
FTUS45 KABQ 190300 AAA
TAFABQ
TAF AMD
KABQ 190310Z 1903/1924 36005KT P6SM SCT040 BKN100
     FM190900 33005KT P6SM SCT004 SCT100
     FM191600 32007KT P6SM FEW150=

USA.gov is the U.S. government's official web portal to all federal, state and local government web resources and services.